Time;durP1;ratioP1;P1;durP2;ratioP2;P2;SDS_P1;SDS_P2;PMS_P1;PMS_P2;Temp;Humidity;BMP_temperature;BMP_pressure;BME280_temperature;BME280_humidity;BME280_pressure;Samples;Min_cycle;Max_cycle;Signal;HPM_P1;HPM_P2
2023/06/02 00:01:17;;;;;;;8.13;5.03;;;;;;;13.51;100.00;93030.28;5091613;28;20051;-73
2023/06/02 00:03:44;;;;;;;8.23;5.47;;;;;;;13.58;100.00;93026.56;5090540;28;20061;-73
2023/06/02 00:06:14;;;;;;;6.75;4.63;;;;;;;13.62;100.00;93027.63;5090881;28;20060;-73
2023/06/02 00:08:42;;;;;;;9.30;4.82;;;;;;;13.66;100.00;93027.94;5090904;28;20052;-73
2023/06/02 00:11:12;;;;;;;7.65;4.53;;;;;;;13.69;100.00;93024.09;5090704;28;20052;-73
2023/06/02 00:13:40;;;;;;;7.72;5.45;;;;;;;13.74;100.00;93022.41;5090637;28;20070;-73
2023/06/02 00:16:08;;;;;;;8.23;5.15;;;;;;;13.76;100.00;93020.38;5090595;28;20051;-73
2023/06/02 00:18:41;;;;;;;8.73;5.05;;;;;;;13.55;100.00;92982.34;5089901;28;20071;-73
2023/06/02 00:21:08;;;;;;;9.82;5.15;;;;;;;13.81;100.00;93014.53;5091187;28;20090;-74
2023/06/02 00:23:35;;;;;;;7.07;4.43;;;;;;;13.65;100.00;92990.25;5090309;28;20043;-73
2023/06/02 00:26:03;;;;;;;8.88;4.85;;;;;;;13.80;100.00;93018.09;5090326;28;20475;-74
2023/06/02 00:28:30;;;;;;;9.43;4.97;;;;;;;13.80;100.00;93015.50;5090203;28;20489;-74
2023/06/02 00:30:57;;;;;;;6.10;4.50;;;;;;;13.69;100.00;93003.47;5090037;28;20056;-73
2023/06/02 00:33:24;;;;;;;8.10;4.85;;;;;;;13.78;100.00;93017.56;5089738;28;20048;-74
2023/06/02 00:35:51;;;;;;;9.93;5.28;;;;;;;13.77;100.00;93016.00;5090198;28;20523;-74
2023/06/02 00:38:18;;;;;;;9.18;5.03;;;;;;;13.65;100.00;93013.47;5090108;28;20416;-73
2023/06/02 00:40:45;;;;;;;8.43;4.30;;;;;;;13.59;100.00;93014.41;5090046;28;20412;-73
2023/06/02 00:43:13;;;;;;;8.50;4.85;;;;;;;13.61;100.00;93013.16;5090942;28;20044;-73
2023/06/02 00:45:40;;;;;;;7.45;5.22;;;;;;;13.53;100.00;93008.41;5090082;28;20052;-73
2023/06/02 00:48:07;;;;;;;7.30;4.13;;;;;;;13.56;100.00;93007.16;5090349;28;20071;-73
2023/06/02 00:50:34;;;;;;;8.38;4.75;;;;;;;13.61;100.00;93010.59;5089946;28;20098;-73
2023/06/02 00:53:02;;;;;;;8.10;4.97;;;;;;;13.60;100.00;93009.03;5089418;28;20051;-73
2023/06/02 00:55:31;;;;;;;7.00;4.57;;;;;;;13.68;100.00;93000.13;5090172;28;20044;-73
2023/06/02 00:57:59;;;;;;;8.15;4.40;;;;;;;13.51;100.00;92974.28;5089652;28;20050;-73
2023/06/02 01:00:33;;;;;;;6.38;4.18;;;;;;;13.68;100.00;92994.16;5087431;28;20686;-73
2023/06/02 01:03:00;;;;;;;8.25;4.20;;;;;;;13.74;100.00;93006.91;5090271;28;20052;-73
2023/06/02 01:05:27;;;;;;;8.38;4.32;;;;;;;13.79;100.00;92998.47;5089291;28;20097;-73
2023/06/02 01:07:59;;;;;;;7.53;4.95;;;;;;;13.82;100.00;92998.00;5089721;28;20048;-73
2023/06/02 01:10:27;;;;;;;6.35;4.13;;;;;;;13.76;100.00;92986.03;5089793;28;20044;-74
2023/06/02 01:12:54;;;;;;;5.60;4.22;;;;;;;13.65;100.00;92985.09;5089557;28;20052;-73
2023/06/02 01:15:21;;;;;;;6.65;4.05;;;;;;;13.57;100.00;92980.31;5089321;28;20044;-74
2023/06/02 01:17:51;;;;;;;7.97;5.00;;;;;;;13.48;100.00;92977.34;5089775;28;20071;-73
2023/06/02 01:20:21;;;;;;;8.25;4.20;;;;;;;13.54;100.00;92981.56;5089411;28;20040;-73
2023/06/02 01:22:57;;;;;;;6.50;4.22;;;;;;;13.59;100.00;92980.88;5089417;28;20045;-74
2023/06/02 01:25:27;;;;;;;6.53;4.53;;;;;;;13.62;100.00;92977.81;5089384;28;20098;-73
2023/06/02 01:27:57;;;;;;;7.40;4.70;;;;;;;13.62;100.00;92965.69;5089375;28;20513;-73
2023/06/02 01:30:25;;;;;;;7.88;4.53;;;;;;;13.65;100.00;92971.41;5088661;28;20081;-73
2023/06/02 01:33:02;;;;;;;6.95;4.35;;;;;;;13.66;100.00;92976.31;5073215;28;20097;-73
2023/06/02 01:35:32;;;;;;;8.10;5.03;;;;;;;13.73;100.00;92974.38;5089017;28;20052;-73
2023/06/02 01:38:01;;;;;;;7.55;4.25;;;;;;;13.75;100.00;92971.56;5075874;28;20047;-73
2023/06/02 01:40:31;;;;;;;7.75;4.95;;;;;;;13.78;100.00;92971.09;5089089;28;20147;-73
2023/06/02 01:43:00;;;;;;;7.03;4.85;;;;;;;13.79;100.00;92975.22;5089152;28;20044;-73
2023/06/02 01:45:29;;;;;;;6.70;4.43;;;;;;;13.80;100.00;92971.63;5088535;28;20048;-74
2023/06/02 01:48:01;;;;;;;7.40;4.90;;;;;;;13.79;100.00;92970.06;5089179;28;20078;-73
2023/06/02 01:50:28;;;;;;;7.00;4.38;;;;;;;13.80;100.00;92976.03;5088380;28;20047;-74
2023/06/02 01:52:55;;;;;;;6.55;4.22;;;;;;;13.79;100.00;92964.91;5088414;28;20074;-73
2023/06/02 01:55:22;;;;;;;7.88;4.35;;;;;;;13.79;100.00;92969.31;5088258;28;20075;-73
2023/06/02 01:57:50;;;;;;;9.27;4.97;;;;;;;13.81;100.00;92967.25;5075215;28;20052;-73
2023/06/02 02:00:18;;;;;;;10.45;4.07;;;;;;;13.80;100.00;92968.28;5088451;28;20063;-73
2023/06/02 02:02:45;;;;;;;10.85;4.88;;;;;;;13.81;100.00;92964.69;5088578;28;20052;-73
2023/06/02 02:05:12;;;;;;;6.78;4.38;;;;;;;13.81;100.00;92962.91;5088219;28;20040;-72
2023/06/02 02:07:42;;;;;;;7.22;4.68;;;;;;;13.76;100.00;92952.50;5087920;28;20130;-71
2023/06/02 02:10:10;;;;;;;9.15;4.80;;;;;;;13.84;100.00;92961.63;5086814;28;21646;-72
2023/06/02 02:12:37;;;;;;;7.93;5.07;;;;;;;13.82;100.00;92961.88;5088449;28;20913;-71
2023/06/02 02:15:06;;;;;;;8.30;4.35;;;;;;;13.82;100.00;92967.03;5088442;28;20067;-71
2023/06/02 02:17:33;;;;;;;8.02;5.20;;;;;;;13.83;100.00;92960.06;5088553;28;20395;-71
2023/06/02 02:20:01;;;;;;;7.45;5.30;;;;;;;13.73;100.00;92951.16;5074549;28;20086;-71
2023/06/02 02:22:28;;;;;;;7.72;5.38;;;;;;;13.84;100.00;92962.41;5088227;28;20512;-71
2023/06/02 02:24:55;;;;;;;6.72;4.15;;;;;;;13.86;100.00;92960.38;5088574;28;20047;-71
2023/06/02 02:27:22;;;;;;;9.05;4.30;;;;;;;13.84;100.00;92972.72;5087812;28;20048;-72
2023/06/02 02:29:49;;;;;;;6.40;4.03;;;;;;;13.87;100.00;92969.69;5087902;28;20044;-71
2023/06/02 02:32:17;;;;;;;8.52;5.22;;;;;;;13.87;100.00;92966.31;5087962;28;20109;-73
2023/06/02 02:34:46;;;;;;;8.18;4.63;;;;;;;13.90;100.00;92969.19;5088109;28;20074;-72
2023/06/02 02:37:13;;;;;;;5.68;4.50;;;;;;;13.89;100.00;92967.66;5088086;28;20071;-71
2023/06/02 02:39:40;;;;;;;7.47;4.93;;;;;;;13.90;100.00;92974.38;5087730;28;20525;-71
2023/06/02 02:42:08;;;;;;;6.07;3.95;;;;;;;13.88;100.00;92963.50;5087467;28;20048;-71
2023/06/02 02:44:34;;;;;;;9.15;5.13;;;;;;;13.92;100.00;92963.03;5087739;28;20044;-71
2023/06/02 02:47:02;;;;;;;6.78;4.90;;;;;;;13.87;100.00;92961.16;5087471;28;20462;-71
2023/06/02 02:49:31;;;;;;;9.00;4.35;;;;;;;13.85;100.00;92958.03;5087908;28;20087;-71
2023/06/02 02:51:58;;;;;;;9.27;5.10;;;;;;;13.95;100.00;92962.56;5087592;28;20412;-71
2023/06/02 02:54:25;;;;;;;7.75;5.00;;;;;;;13.93;100.00;92964.59;5087562;28;20059;-71
2023/06/02 02:56:52;;;;;;;8.05;5.30;;;;;;;13.90;100.00;92966.63;5087442;28;20142;-71
2023/06/02 02:59:20;;;;;;;6.43;4.10;;;;;;;13.89;100.00;92965.06;5087409;28;20044;-71
2023/06/02 03:01:47;;;;;;;6.72;4.90;;;;;;;13.88;100.00;92962.72;5087836;28;20052;-71
2023/06/02 03:04:18;;;;;;;7.95;4.95;;;;;;;13.88;100.00;92958.34;5086779;28;20047;-71
2023/06/02 03:06:48;;;;;;;9.60;5.10;;;;;;;13.86;100.00;92960.38;5087593;28;20044;-71
2023/06/02 03:09:15;;;;;;;9.60;5.28;;;;;;;13.86;100.00;92969.91;5087870;28;20146;-71
2023/06/02 03:11:43;;;;;;;8.20;5.22;;;;;;;13.85;100.00;92960.63;5087230;28;20043;-71
2023/06/02 03:14:10;;;;;;;6.25;4.55;;;;;;;13.85;100.00;92963.19;5087889;28;20059;-71
2023/06/02 03:16:39;;;;;;;7.85;4.57;;;;;;;13.83;100.00;92953.09;5087452;28;20044;-71
2023/06/02 03:19:06;;;;;;;8.85;5.55;;;;;;;13.78;100.00;92960.78;5087580;28;20044;-71
2023/06/02 03:21:41;;;;;;;7.38;4.90;;;;;;;13.80;100.00;92966.47;5087345;28;20127;-72
2023/06/02 03:24:11;;;;;;;12.18;6.18;;;;;;;13.75;100.00;92959.44;5087487;28;20394;-72
2023/06/02 03:26:40;;;;;;;9.55;5.20;;;;;;;13.81;100.00;92962.91;5091415;28;20035;-72
2023/06/02 03:29:07;;;;;;;9.80;5.57;;;;;;;13.83;100.00;92968.59;5094279;28;20096;-72
2023/06/02 03:31:35;;;;;;;10.23;4.50;;;;;;;13.86;100.00;92969.91;5087336;28;20053;-72
2023/06/02 03:34:02;;;;;;;8.85;5.10;;;;;;;13.92;100.00;92963.81;5087035;28;20048;-72
2023/06/02 03:36:29;;;;;;;11.45;5.28;;;;;;;13.95;100.00;92963.34;5087563;28;20052;-72
2023/06/02 03:38:55;;;;;;;8.70;5.15;;;;;;;13.76;100.00;92929.25;5087265;28;20059;-72
2023/06/02 03:41:24;;;;;;;8.45;5.15;;;;;;;14.00;100.00;92958.25;5086896;28;20055;-72
2023/06/02 03:43:50;;;;;;;10.73;4.78;;;;;;;14.00;100.00;92955.69;5087286;28;20044;-72
2023/06/02 03:46:17;;;;;;;7.85;4.55;;;;;;;14.00;100.00;92960.84;5087012;28;20063;-72
2023/06/02 03:48:44;;;;;;;7.18;3.85;;;;;;;13.96;100.00;92961.53;5086554;28;20565;-72
2023/06/02 03:51:11;;;;;;;7.57;4.50;;;;;;;13.98;100.00;92964.69;5087026;28;20561;-72
2023/06/02 03:53:38;;;;;;;7.05;4.32;;;;;;;13.80;100.00;92932.91;5087217;28;20077;-71
2023/06/02 03:56:05;;;;;;;7.40;4.68;;;;;;;13.95;100.00;92965.13;5086667;28;20515;-71
2023/06/02 03:58:33;;;;;;;6.32;4.65;;;;;;;13.93;100.00;92959.44;5087153;28;20048;-71
2023/06/02 04:01:01;;;;;;;9.48;5.47;;;;;;;13.95;100.00;92962.56;5086827;28;20601;-72
2023/06/02 04:03:28;;;;;;;7.10;4.88;;;;;;;13.96;100.00;92959.75;5087455;28;20058;-72
2023/06/02 04:05:55;;;;;;;7.75;3.90;;;;;;;13.93;100.00;92959.44;5087243;28;20044;-71
2023/06/02 04:08:22;;;;;;;7.80;4.40;;;;;;;13.96;100.00;92958.94;5086780;28;20137;-72
2023/06/02 04:10:49;;;;;;;9.02;5.25;;;;;;;13.95;100.00;92958.19;5086739;28;20098;-72
2023/06/02 04:13:16;;;;;;;7.38;4.70;;;;;;;13.96;100.00;92956.38;5086677;28;20060;-71
2023/06/02 04:15:45;;;;;;;8.05;5.28;;;;;;;14.00;100.00;92957.47;5089922;28;20052;-71
2023/06/02 04:18:12;;;;;;;9.20;5.78;;;;;;;14.03;100.00;92951.84;5090733;28;20047;-72
2023/06/02 04:20:39;;;;;;;9.18;4.57;;;;;;;14.08;100.00;92959.66;5090475;28;20048;-72
2023/06/02 04:23:06;;;;;;;7.10;4.82;;;;;;;14.12;100.00;92954.81;5090744;28;20074;-71
2023/06/02 04:25:32;;;;;;;7.63;5.20;;;;;;;14.17;100.00;92960.03;5090598;28;20052;-72
2023/06/02 04:27:59;;;;;;;8.68;5.97;;;;;;;14.19;100.00;92954.63;5090661;28;20040;-72
2023/06/02 04:30:26;;;;;;;7.90;5.22;;;;;;;14.23;100.00;92950.53;5090274;28;20145;-71
2023/06/02 04:32:54;;;;;;;17.15;6.07;;;;;;;14.12;100.00;92939.31;5090284;28;20071;-71
2023/06/02 04:35:21;;;;;;;8.93;5.13;;;;;;;14.24;100.00;92954.69;5090171;28;20053;-71
2023/06/02 04:37:48;;;;;;;7.63;5.03;;;;;;;14.27;100.00;92961.97;5089705;28;20052;-71
2023/06/02 04:40:15;;;;;;;9.65;5.07;;;;;;;14.34;100.00;92962.56;5090344;28;20531;-71
2023/06/02 04:42:41;;;;;;;8.27;5.25;;;;;;;14.35;100.00;92963.38;5090207;28;20101;-71
2023/06/02 04:45:12;;;;;;;8.45;5.65;;;;;;;14.27;100.00;92936.13;5089869;28;20607;-71
2023/06/02 04:47:39;;;;;;;7.43;5.38;;;;;;;14.45;100.00;92948.00;5090446;28;20079;-71
2023/06/02 04:50:09;;;;;;;8.73;5.93;;;;;;;14.38;100.00;92948.16;5089892;28;20134;-71
2023/06/02 04:52:36;;;;;;;8.38;5.25;;;;;;;14.41;100.00;92963.16;5089982;28;20051;-71
2023/06/02 04:55:03;;;;;;;10.68;5.60;;;;;;;14.37;100.00;92961.31;5089539;28;20048;-71
2023/06/02 04:57:30;;;;;;;11.40;6.72;;;;;;;14.33;100.00;92961.00;5089859;28;20125;-71
2023/06/02 04:59:56;;;;;;;10.20;6.68;;;;;;;14.33;100.00;92966.19;5090028;28;20048;-71
2023/06/02 05:02:23;;;;;;;8.18;5.45;;;;;;;14.32;100.00;92962.03;5089915;28;20048;-71
2023/06/02 05:04:50;;;;;;;12.20;7.28;;;;;;;14.38;100.00;92961.06;5089658;28;20512;-71
2023/06/02 05:07:18;;;;;;;12.93;7.05;;;;;;;14.41;100.00;92949.47;5089439;28;20052;-72
2023/06/02 05:09:45;;;;;;;9.77;6.13;;;;;;;14.56;100.00;92967.78;5089705;28;20859;-71
2023/06/02 05:12:12;;;;;;;11.75;7.03;;;;;;;14.66;100.00;92968.91;5089633;28;20054;-71
2023/06/02 05:14:39;;;;;;;10.13;6.72;;;;;;;14.73;100.00;92959.19;5089462;28;20056;-71
2023/06/02 05:17:07;;;;;;;12.68;6.97;;;;;;;14.92;100.00;92967.44;5089456;28;20052;-71
2023/06/02 05:19:34;;;;;;;13.02;7.40;;;;;;;15.01;100.00;92972.16;5089751;28;20131;-71
2023/06/02 05:22:02;;;;;;;15.65;6.45;;;;;;;15.16;100.00;92969.72;5088985;28;20087;-71
2023/06/02 05:24:30;;;;;;;13.85;6.43;;;;;;;15.30;100.00;92977.09;5089328;28;20048;-71
2023/06/02 05:26:57;;;;;;;15.60;7.82;;;;;;;15.43;100.00;92973.34;5088104;28;20040;-71
2023/06/02 05:29:24;;;;;;;15.77;6.30;;;;;;;15.44;100.00;92967.91;5089346;28;20048;-71
2023/06/02 05:31:51;;;;;;;11.30;6.05;;;;;;;15.66;100.00;92967.06;5089573;28;20048;-71
2023/06/02 05:34:17;;;;;;;12.20;6.03;;;;;;;15.85;100.00;92969.28;5089218;28;20100;-71
2023/06/02 05:36:44;;;;;;;9.57;5.30;;;;;;;16.04;100.00;92967.09;5088624;28;20055;-71
2023/06/02 05:39:11;;;;;;;10.60;5.60;;;;;;;16.17;100.00;92973.66;5089130;28;20089;-71
2023/06/02 05:41:39;;;;;;;12.70;6.28;;;;;;;16.36;100.00;92974.03;5089333;28;20127;-71
2023/06/02 05:44:06;;;;;;;9.95;5.88;;;;;;;16.43;100.00;92973.78;5088990;28;20048;-71
2023/06/02 05:46:33;;;;;;;7.38;4.78;;;;;;;16.62;100.00;92979.31;5088892;28;20063;-71
2023/06/02 05:48:59;;;;;;;6.85;4.15;;;;;;;16.54;100.00;92980.59;5080872;28;20044;-71
2023/06/02 05:51:26;;;;;;;5.72;4.00;;;;;;;16.77;100.00;92980.44;5080902;28;20496;-72
2023/06/02 05:53:53;;;;;;;9.38;4.28;;;;;;;16.89;100.00;92982.81;5088528;28;20460;-72
2023/06/02 05:56:20;;;;;;;7.90;4.10;;;;;;;17.08;100.00;92977.97;5088755;28;20055;-71
2023/06/02 05:58:48;;;;;;;12.85;4.30;;;;;;;17.39;100.00;92980.63;5088719;28;20044;-71
2023/06/02 06:01:15;;;;;;;8.43;4.85;;;;;;;17.73;100.00;92981.97;5088624;28;20512;-71
2023/06/02 06:03:42;;;;;;;12.30;4.35;;;;;;;18.07;100.00;92983.28;5088234;28;20040;-71
2023/06/02 06:06:09;;;;;;;8.15;4.45;;;;;;;18.30;100.00;92984.53;5088200;28;20125;-72
2023/06/02 06:08:36;;;;;;;10.25;5.97;;;;;;;18.42;100.00;92981.63;5075391;28;20051;-72
2023/06/02 06:11:03;;;;;;;8.48;5.13;;;;;;;18.63;100.00;92987.59;5088204;28;20048;-72
2023/06/02 06:13:30;;;;;;;8.63;4.68;;;;;;;18.79;100.00;92984.94;5088313;28;20051;-72
2023/06/02 06:15:58;;;;;;;11.18;4.47;;;;;;;18.54;100.00;92986.56;5088291;28;20051;-72
2023/06/02 06:18:25;;;;;;;10.57;5.45;;;;;;;18.38;100.00;92975.44;5088262;28;20052;-72
2023/06/02 06:20:52;;;;;;;7.40;4.43;;;;;;;18.55;100.00;92985.50;5087524;28;20105;-72
2023/06/02 06:23:18;;;;;;;9.85;4.15;;;;;;;18.49;97.85;92986.56;5088343;28;20051;-71
2023/06/02 06:25:45;;;;;;;7.63;3.60;;;;;;;18.65;98.50;92988.09;5088130;28;20048;-71
2023/06/02 06:28:12;;;;;;;9.40;4.68;;;;;;;19.00;100.00;92990.03;5087820;28;20101;-71
2023/06/02 06:30:40;;;;;;;9.20;5.15;;;;;;;19.45;100.00;92995.31;5088456;28;20412;-71
2023/06/02 06:33:08;;;;;;;10.57;4.65;;;;;;;19.85;98.92;92984.84;5088209;28;20052;-71
2023/06/02 06:35:35;;;;;;;7.45;4.75;;;;;;;20.16;98.61;92992.44;5087545;28;20058;-72
2023/06/02 06:38:03;;;;;;;14.57;5.22;;;;;;;20.42;96.58;92998.19;5087672;28;20046;-71
2023/06/02 06:40:30;;;;;;;10.27;3.85;;;;;;;20.75;94.59;92991.59;5087936;28;20074;-71
2023/06/02 06:42:57;;;;;;;11.15;5.05;;;;;;;21.04;89.11;92993.38;5087690;28;20500;-72
2023/06/02 06:45:23;;;;;;;7.35;3.72;;;;;;;21.22;88.89;92997.88;5087424;28;20047;-71
2023/06/02 06:47:50;;;;;;;14.52;5.05;;;;;;;21.52;87.11;92987.25;5087613;28;20425;-72
2023/06/02 06:50:19;;;;;;;11.88;5.18;;;;;;;21.36;85.36;92995.34;5087068;28;20051;-72
2023/06/02 06:52:47;;;;;;;8.32;4.88;;;;;;;21.31;85.86;92989.38;5087821;28;20040;-71
2023/06/02 06:55:14;;;;;;;11.75;4.40;;;;;;;21.67;86.25;92978.44;5087082;28;20047;-71
2023/06/02 06:57:41;;;;;;;16.77;5.47;;;;;;;21.79;81.12;92990.31;5087377;28;20052;-71
2023/06/02 07:00:09;;;;;;;13.73;4.85;;;;;;;22.25;87.35;92988.78;5087753;28;20097;-72
2023/06/02 07:02:35;;;;;;;10.05;4.47;;;;;;;22.58;85.90;92985.38;5087369;28;20094;-71
2023/06/02 07:05:03;;;;;;;10.63;4.80;;;;;;;22.96;85.94;92991.16;5086988;28;20092;-72
2023/06/02 07:07:32;;;;;;;10.88;4.30;;;;;;;23.37;82.00;92988.78;5087744;28;20068;-72
2023/06/02 07:09:59;;;;;;;9.98;4.10;;;;;;;23.78;80.64;92996.84;5087376;28;20048;-72
2023/06/02 07:12:25;;;;;;;18.25;5.25;;;;;;;23.97;78.62;92994.78;5087544;28;20457;-72
2023/06/02 07:14:52;;;;;;;12.52;4.72;;;;;;;24.07;76.87;92998.25;5087383;28;20183;-72
2023/06/02 07:17:19;;;;;;;10.63;4.47;;;;;;;24.39;76.22;92970.22;5087037;28;20048;-72
2023/06/02 07:19:46;;;;;;;13.07;5.47;;;;;;;23.03;75.23;93000.47;5086709;28;20044;-72
2023/06/02 07:22:13;;;;;;;16.95;5.60;;;;;;;23.31;76.95;93003.88;5087386;28;20048;-72
2023/06/02 07:24:44;;;;;;;11.80;4.50;;;;;;;23.10;78.00;93006.09;5086911;28;20055;-72
2023/06/02 07:27:11;;;;;;;15.93;4.05;;;;;;;23.20;77.59;93012.97;5087307;28;20050;-72
2023/06/02 07:29:37;;;;;;;8.45;4.10;;;;;;;22.97;79.90;93012.91;5087092;28;20048;-72
2023/06/02 07:32:05;;;;;;;9.75;3.25;;;;;;;23.09;79.86;93012.41;5086817;28;20054;-72
2023/06/02 07:34:31;;;;;;;10.40;4.38;;;;;;;23.25;79.47;93012.88;5087055;28;20054;-72
2023/06/02 07:37:00;;;;;;;8.10;3.60;;;;;;;23.26;78.44;93014.41;5087323;28;20040;-72
2023/06/02 07:39:27;;;;;;;11.05;4.82;;;;;;;23.08;79.39;93003.78;5087292;28;20122;-72
2023/06/02 07:41:55;;;;;;;8.25;3.25;;;;;;;22.70;78.40;93011.84;5087054;28;20044;-72
2023/06/02 07:44:22;;;;;;;6.63;3.25;;;;;;;22.33;82.32;93011.66;5087158;28;20040;-72
2023/06/02 07:46:49;;;;;;;6.60;3.45;;;;;;;22.51;83.34;93009.28;5086638;28;20059;-72
2023/06/02 07:49:16;;;;;;;7.63;3.47;;;;;;;22.59;83.82;93011.22;5087902;28;20044;-72
2023/06/02 07:51:42;;;;;;;7.82;3.40;;;;;;;22.78;83.64;93007.78;5091315;28;20097;-72
2023/06/02 07:54:09;;;;;;;8.85;3.60;;;;;;;22.75;80.97;93014.38;5090962;28;20431;-72
2023/06/02 07:56:37;;;;;;;5.63;2.78;;;;;;;23.00;83.00;93016.78;5090944;28;20052;-71
2023/06/02 07:59:05;;;;;;;8.48;2.97;;;;;;;23.08;81.72;93018.72;5090678;28;20075;-71
2023/06/02 08:01:32;;;;;;;4.50;2.33;;;;;;;23.16;82.63;93012.78;5090787;28;20048;-72
2023/06/02 08:03:59;;;;;;;5.60;2.70;;;;;;;23.32;80.21;93005.41;5088801;28;20048;-72
2023/06/02 08:06:26;;;;;;;4.22;2.63;;;;;;;23.84;81.19;93004.28;5090513;28;20040;-72
2023/06/02 08:08:53;;;;;;;4.38;3.10;;;;;;;23.96;79.14;93009.00;5090594;28;20058;-72
2023/06/02 08:11:20;;;;;;;5.13;3.00;;;;;;;24.46;78.72;93007.28;5090657;28;20048;-72
2023/06/02 08:13:47;;;;;;;5.35;2.50;;;;;;;24.71;77.85;93002.44;5090748;28;20070;-72
2023/06/02 08:16:15;;;;;;;5.85;2.75;;;;;;;25.22;79.22;93000.28;5090143;28;20493;-72
2023/06/02 08:18:42;;;;;;;4.82;2.70;;;;;;;25.56;73.92;93005.94;5090879;28;20393;-72
2023/06/02 08:21:08;;;;;;;4.72;2.70;;;;;;;25.88;71.96;93003.13;5090393;28;20094;-72
2023/06/02 08:23:35;;;;;;;4.53;2.78;;;;;;;25.35;69.14;93001.25;5090283;28;20113;-72
2023/06/02 08:26:02;;;;;;;4.80;2.22;;;;;;;25.79;69.52;93002.34;5090478;28;20121;-72
2023/06/02 08:28:33;;;;;;;5.50;2.40;;;;;;;25.71;71.14;92993.38;5090202;28;20046;-73
2023/06/02 08:31:01;;;;;;;4.15;2.25;;;;;;;25.94;71.79;92985.31;5090226;28;20044;-72
2023/06/02 08:33:33;;;;;;;4.57;2.50;;;;;;;26.20;72.35;92985.25;5090042;28;20052;-73
2023/06/02 08:36:02;;;;;;;4.13;2.55;;;;;;;26.12;67.55;92976.31;5090204;28;20408;-73
2023/06/02 08:38:30;;;;;;;3.80;2.03;;;;;;;26.17;65.08;92979.84;5090528;28;20064;-73
2023/06/02 08:40:58;;;;;;;6.60;2.50;;;;;;;26.13;68.93;92977.88;5090022;28;20144;-73
2023/06/02 08:43:24;;;;;;;3.25;2.10;;;;;;;26.07;66.14;92983.59;5089987;28;20128;-73
2023/06/02 08:45:51;;;;;;;4.43;2.30;;;;;;;26.17;65.88;92980.63;5089709;28;20048;-72
2023/06/02 08:48:19;;;;;;;4.55;2.03;;;;;;;26.17;63.51;92966.69;5090137;28;20102;-73
2023/06/02 08:50:49;;;;;;;4.93;2.50;;;;;;;26.34;64.82;92966.66;5090060;28;20575;-73
2023/06/02 08:53:17;;;;;;;3.65;2.28;;;;;;;26.38;61.10;92969.47;5090080;28;20079;-72
2023/06/02 08:55:44;;;;;;;4.57;2.28;;;;;;;26.34;57.37;92963.28;5089806;28;20394;-73
2023/06/02 08:58:12;;;;;;;4.55;2.70;;;;;;;26.50;60.04;92950.34;5090356;28;20138;-73
2023/06/02 09:00:39;;;;;;;3.30;2.28;;;;;;;26.74;61.25;92947.13;5087874;28;20059;-72
2023/06/02 09:03:06;;;;;;;4.90;2.83;;;;;;;27.10;59.92;92950.38;5089656;28;20040;-73
2023/06/02 09:05:33;;;;;;;3.65;2.13;;;;;;;27.21;55.07;92950.75;5089468;28;20102;-73
2023/06/02 09:08:11;;;;;;;3.67;2.25;;;;;;;27.37;58.93;92945.69;5089716;28;20040;-73
2023/06/02 09:10:41;;;;;;;3.45;2.13;;;;;;;27.54;55.86;92942.13;5089596;28;20040;-73
2023/06/02 09:13:09;;;;;;;3.90;2.10;;;;;;;27.56;56.75;92941.81;5089279;28;20052;-73
2023/06/02 09:15:36;;;;;;;5.97;3.05;;;;;;;27.43;58.24;92938.34;5089522;28;20397;-73
2023/06/02 09:18:14;;;;;;;3.80;2.50;;;;;;;27.21;59.04;92941.00;5088838;28;20565;-74
2023/06/02 09:20:41;;;;;;;4.15;2.03;;;;;;;26.82;60.19;92927.09;5089642;28;20784;-73
2023/06/02 09:23:08;;;;;;;4.95;2.20;;;;;;;26.49;59.31;92938.28;5089199;28;20547;-73
2023/06/02 09:25:38;;;;;;;3.88;1.88;;;;;;;26.44;61.07;92933.97;5089897;28;20056;-72
2023/06/02 09:28:05;;;;;;;2.83;1.48;;;;;;;26.44;59.62;92935.81;5088774;28;20072;-73
2023/06/02 09:30:32;;;;;;;3.40;2.10;;;;;;;26.24;56.34;92943.34;5089126;28;20157;-73
2023/06/02 09:33:00;;;;;;;7.15;2.60;;;;;;;26.15;56.64;92935.44;5088831;28;20040;-73
2023/06/02 09:35:37;;;;;;;6.45;2.00;;;;;;;26.21;53.09;92931.53;5089214;28;20101;-73
2023/06/02 09:38:07;;;;;;;5.10;2.03;;;;;;;26.52;57.52;92922.59;5088873;28;20048;-73
2023/06/02 09:40:34;;;;;;;7.18;2.88;;;;;;;26.62;57.68;92913.56;5089025;28;20063;-73
2023/06/02 09:43:05;;;;;;;3.80;2.03;;;;;;;26.87;56.66;92924.28;5088554;28;20044;-73
2023/06/02 09:45:32;;;;;;;3.13;1.88;;;;;;;26.47;54.71;92922.03;5088983;28;20056;-73
2023/06/02 09:48:00;;;;;;;5.60;1.98;;;;;;;27.07;57.34;92920.16;5089523;28;20108;-73
2023/06/02 09:50:35;;;;;;;3.67;1.90;;;;;;;27.34;55.83;92912.03;5089034;28;20044;-73
2023/06/02 09:53:06;;;;;;;4.28;1.75;;;;;;;27.63;51.61;92925.50;5088848;28;20519;-73
2023/06/02 09:55:35;;;;;;;4.97;1.92;;;;;;;27.86;52.00;92918.75;5088768;28;20152;-74
2023/06/02 09:58:04;;;;;;;4.13;2.28;;;;;;;28.18;52.95;92912.22;5088380;28;21107;-74
2023/06/02 10:00:32;;;;;;;4.13;2.38;;;;;;;28.54;53.05;92908.84;5088538;28;20044;-74
2023/06/02 10:02:59;;;;;;;4.78;2.13;;;;;;;28.86;49.76;92907.50;5088723;28;20496;-74
2023/06/02 10:05:26;;;;;;;2.90;1.30;;;;;;;27.75;44.19;92901.78;5088856;28;20046;-74
2023/06/02 10:08:05;;;;;;;2.88;1.70;;;;;;;27.56;46.28;92902.25;5088456;28;20052;-74
2023/06/02 10:10:53;;;;;;;3.67;2.05;;;;;;;27.21;47.60;92898.81;5088333;28;20044;-73
2023/06/02 10:13:55;;;;;;;3.80;1.70;;;;;;;28.05;48.69;92896.34;5087241;28;20059;-74
2023/06/02 10:16:36;;;;;;;4.43;2.33;;;;;;;28.63;50.44;92884.97;5073332;28;20136;-74
2023/06/02 10:19:32;;;;;;;5.57;2.13;;;;;;;29.27;48.39;92870.53;5088170;28;20512;-74
2023/06/02 10:22:57;;;;;;;3.72;1.88;;;;;;;29.02;46.92;92866.06;5088389;28;20074;-74
2023/06/02 10:25:32;;;;;;;5.35;1.92;;;;;;;29.36;45.88;92873.03;5025621;28;20045;-74
2023/06/02 10:28:02;;;;;;;3.05;1.85;;;;;;;29.44;43.80;92866.81;5076633;28;20051;-74
2023/06/02 10:30:30;;;;;;;3.30;1.70;;;;;;;29.34;45.65;92858.25;5088344;28;20424;-74
2023/06/02 10:32:57;;;;;;;3.58;1.60;;;;;;;28.72;41.10;92866.34;5088105;28;20446;-74
2023/06/02 10:35:58;;;;;;;5.05;1.70;;;;;;;29.23;45.11;92859.06;5087667;28;20051;-74
2023/06/02 10:38:27;;;;;;;3.13;1.73;;;;;;;29.20;41.61;92873.72;5088064;28;20070;-74
2023/06/02 10:40:54;;;;;;;2.95;1.70;;;;;;;29.42;43.20;92859.22;5087418;28;20047;-74
2023/06/02 10:43:22;;;;;;;2.17;1.10;;;;;;;28.33;40.36;92865.94;5087671;28;20154;-74
2023/06/02 10:45:49;;;;;;;2.58;1.27;;;;;;;28.65;40.93;92855.56;5087496;28;20036;-74
2023/06/02 10:48:39;;;;;;;2.60;1.50;;;;;;;28.91;43.09;92851.78;5087695;28;20524;-74
2023/06/02 10:51:10;;;;;;;3.00;1.52;;;;;;;28.75;42.46;92846.41;5075157;28;20412;-74
2023/06/02 10:54:11;;;;;;;2.75;1.42;;;;;;;28.40;43.84;92855.56;5087618;28;20052;-75
2023/06/02 10:56:45;;;;;;;2.78;1.40;;;;;;;27.83;42.31;92850.81;5087179;28;20110;-75
2023/06/02 10:59:32;;;;;;;2.78;1.50;;;;;;;28.44;44.17;92845.13;5074230;28;20052;-74
2023/06/02 11:01:58;;;;;;;3.35;1.52;;;;;;;28.33;43.27;92826.31;5087398;28;20712;-74
2023/06/02 11:04:31;;;;;;;2.50;1.30;;;;;;;28.44;41.44;92845.91;5087740;28;20126;-74
2023/06/02 11:07:21;;;;;;;5.03;1.52;;;;;;;28.32;41.42;92844.03;5087606;28;20121;-74
2023/06/02 11:09:50;;;;;;;3.03;1.42;;;;;;;27.81;40.56;92846.94;5087415;28;20071;-75
2023/06/02 11:12:17;;;;;;;3.08;1.52;;;;;;;26.72;41.89;92837.91;5087208;28;20052;-74
2023/06/02 11:15:18;;;;;;;3.63;1.52;;;;;;;26.71;46.83;92847.69;5087239;28;20044;-74
2023/06/02 11:17:47;;;;;;;3.25;1.85;;;;;;;26.98;48.71;92843.00;5087328;28;20166;-74
2023/06/02 11:20:15;;;;;;;3.78;2.20;;;;;;;27.08;48.44;92826.78;5087256;28;20055;-74
2023/06/02 11:22:44;;;;;;;4.07;2.22;;;;;;;27.23;50.37;92835.22;5087389;28;20127;-74
2023/06/02 11:25:12;;;;;;;4.30;2.47;;;;;;;27.10;49.69;92842.28;5073072;28;20044;-74
2023/06/02 11:27:41;;;;;;;4.28;1.88;;;;;;;27.20;50.06;92841.13;5087557;28;20047;-74
2023/06/02 11:30:10;;;;;;;2.45;1.50;;;;;;;27.14;47.90;92837.94;5087520;28;20411;-74
2023/06/02 11:32:38;;;;;;;3.90;1.95;;;;;;;26.68;46.74;92843.81;5087450;28;20044;-74
2023/06/02 11:35:07;;;;;;;3.00;1.60;;;;;;;26.91;46.69;92851.41;5087783;28;20093;-74